Hammonia Bavaria — A8QT7 — position and weather

sailwx.info

Track history (hours):
 
Tides and Currents Weather Stations Pressure Air Temp Water Temp Dewpoint Dewpoint Depression Visibility Wind Speed Wind Dir Waves Ship Positions

Hammonia Bavaria

Last reported at 2015-Mar-25 17:27 UTC. Time now 2015-Mar-28 00:38 UTC.
Position N 09°34' W 016°31'.

Length 209 m; draft 7.8 m.

Type: Cargo ship. MMSI: 636091641.

Date/timePositionNaut miles runAvg speedWind from/ knotsBaromVisibWave heightAir tempDewpointWater temp
2015-Mar-25 17:27N 09°34' W 016°31'59 9.6
2015-Mar-25 11:17N 08°57' W 015°45'15 8.8
2015-Mar-25 09:33N 08°47' W 015°33'34 8.5
2015-Mar-25 05:30N 08°25' W 015°06'9 8.8
2015-Mar-25 04:27N 08°20' W 014°58'8 9.0
2015-Mar-25 03:33N 08°15' W 014°52'9 8.8
2015-Mar-25 02:33N 08°09' W 014°45'9 8.8
2015-Mar-25 01:33N 08°04' W 014°38'9 8.8
2015-Mar-25 00:32N 07°58' W 014°31'  
Track history (hours):
 
Tides and Currents Weather Stations Pressure Air Temp Water Temp Dewpoint Dewpoint Depression Visibility Wind Speed Wind Dir Waves Ship Positions

Hammonia Bavaria

Last reported at 2015-Mar-25 17:27 UTC. Time now 2015-Mar-28 00:38 UTC.
Position N 09°34' W 016°31'.

Length 209 m; draft 7.8 m.

Type: Cargo ship. MMSI: 636091641.

Date/timePositionNaut miles runAvg speedWind from/ knotsBaromVisibWave heightAir tempDewpointWater temp
2015-Mar-25 17:27N 09°34' W 016°31'59 9.6
2015-Mar-25 11:17N 08°57' W 015°45'15 8.8
2015-Mar-25 09:33N 08°47' W 015°33'34 8.5
2015-Mar-25 05:30N 08°25' W 015°06'9 8.8
2015-Mar-25 04:27N 08°20' W 014°58'8 9.0
2015-Mar-25 03:33N 08°15' W 014°52'9 8.8
2015-Mar-25 02:33N 08°09' W 014°45'9 8.8
2015-Mar-25 01:33N 08°04' W 014°38'9 8.8
2015-Mar-25 00:32N 07°58' W 014°31'  

Dump ship's entire track history